Time;durP1;ratioP1;P1;durP2;ratioP2;P2;SDS_P1;SDS_P2;PMS_P1;PMS_P2;Temp;Humidity;BMP_temperature;BMP_pressure;BME280_temperature;BME280_humidity;BME280_pressure;Samples;Min_cycle;Max_cycle;Signal;HPM_P1;HPM_P2
2021/11/10 00:02:25;;;;;;;;;;;6.00;58.40;;;;;;4373215;32;20470;-45
2021/11/10 00:04:51;;;;;;;;;;;6.00;57.60;;;;;;4373419;32;19962;-46
2021/11/10 00:07:17;;;;;;;;;;;6.00;57.40;;;;;;4373425;32;19973;-46
2021/11/10 00:09:44;;;;;;;;;;;6.00;57.40;;;;;;4373691;32;19970;-47
2021/11/10 00:12:10;;;;;;;;;;;5.90;57.40;;;;;;4373266;32;20418;-43
2021/11/10 00:14:37;;;;;;;;;;;5.90;57.50;;;;;;4328493;33;19999;-49
2021/11/10 00:17:03;;;;;;;;;;;5.90;57.40;;;;;;4341021;33;19963;-47
2021/11/10 00:19:29;;;;;;;;;;;5.90;57.20;;;;;;4341043;33;19985;-40
2021/11/10 00:21:55;;;;;;;;;;;5.90;57.20;;;;;;4341248;33;20152;-46
2021/11/10 00:24:21;;;;;;;;;;;5.80;56.70;;;;;;4344025;32;20496;-45
2021/11/10 00:26:48;;;;;;;;;;;5.80;56.80;;;;;;4355926;32;20025;-40
2021/11/10 00:29:14;;;;;;;;;;;5.80;56.70;;;;;;4356402;32;19990;-45
2021/11/10 00:31:40;;;;;;;;;;;5.80;56.60;;;;;;4355919;32;20483;-47
2021/11/10 00:34:06;;;;;;;;;;;5.70;56.30;;;;;;4355866;32;20043;-44
2021/11/10 00:36:33;;;;;;;;;;;5.80;56.20;;;;;;4355820;32;19978;-44
2021/11/10 00:38:59;;;;;;;;;;;5.80;55.90;;;;;;4355604;32;19976;-47
2021/11/10 00:41:25;;;;;;;;;;;5.70;56.10;;;;;;4356226;32;19970;-46
2021/11/10 00:43:51;;;;;;;;;;;5.70;55.60;;;;;;4355626;32;19966;-48
2021/11/10 00:46:18;;;;;;;;;;;5.70;55.60;;;;;;4366743;32;20058;-49
2021/11/10 00:48:44;;;;;;;;;;;5.60;55.60;;;;;;4370444;32;20395;-48
2021/11/10 00:51:10;;;;;;;;;;;5.60;55.50;;;;;;4371170;32;19982;-45
2021/11/10 00:53:36;;;;;;;;;;;5.60;55.80;;;;;;4373099;32;19973;-45
2021/11/10 00:56:03;;;;;;;;;;;5.60;55.50;;;;;;4373488;32;19978;-48
2021/11/10 00:58:29;;;;;;;;;;;5.50;55.70;;;;;;4372820;32;19977;-45
2021/11/10 01:00:55;;;;;;;;;;;5.50;55.90;;;;;;4373141;32;20040;-43
2021/11/10 01:03:23;;;;;;;;;;;5.50;55.70;;;;;;4372957;32;20089;-44
2021/11/10 01:05:50;;;;;;;;;;;5.50;55.70;;;;;;4373017;32;20386;-43
2021/11/10 01:08:16;;;;;;;;;;;5.50;55.50;;;;;;4373182;32;19990;-47
2021/11/10 01:10:42;;;;;;;;;;;5.50;55.50;;;;;;4373189;32;20051;-45
2021/11/10 01:13:09;;;;;;;;;;;5.40;55.40;;;;;;4372742;32;20377;-44
2021/11/10 01:15:35;;;;;;;;;;;5.40;55.40;;;;;;4373049;32;20058;-45
2021/11/10 01:18:01;;;;;;;;;;;5.40;55.40;;;;;;4372924;32;20032;-44
2021/11/10 01:20:28;;;;;;;;;;;5.40;54.70;;;;;;4373266;32;20047;-43
2021/11/10 01:22:54;;;;;;;;;;;5.40;54.80;;;;;;4375654;32;20456;-44
2021/11/10 01:25:20;;;;;;;;;;;5.30;54.60;;;;;;4384759;32;20043;-40
2021/11/10 01:27:46;;;;;;;;;;;5.30;54.40;;;;;;4390950;32;19988;-46
2021/11/10 01:30:13;;;;;;;;;;;5.30;54.50;;;;;;4390469;32;20057;-45
2021/11/10 01:32:39;;;;;;;;;;;5.20;54.30;;;;;;4390586;32;19996;-47
2021/11/10 01:35:06;;;;;;;;;;;5.20;54.30;;;;;;4390786;32;20465;-45
2021/11/10 01:37:32;;;;;;;;;;;5.20;54.20;;;;;;4390604;32;19985;-46
2021/11/10 01:39:58;;;;;;;;;;;5.10;54.40;;;;;;4390334;32;20046;-47
2021/11/10 01:42:30;;;;;;;;;;;5.10;54.60;;;;;;4390317;32;20089;-50
2021/11/10 01:44:59;;;;;;;;;;;5.10;55.00;;;;;;4374854;32;20004;-46
2021/11/10 01:47:26;;;;;;;;;;;5.00;55.20;;;;;;4375595;32;19965;-45
2021/11/10 01:49:52;;;;;;;;;;;5.00;55.50;;;;;;4375135;32;19978;-44
2021/11/10 01:52:18;;;;;;;;;;;5.00;55.80;;;;;;4375772;32;20147;-47
2021/11/10 01:54:44;;;;;;;;;;;5.00;56.00;;;;;;4361834;32;19974;-48
2021/11/10 01:57:11;;;;;;;;;;;4.90;56.10;;;;;;4375464;32;19958;-46
2021/11/10 01:59:43;;;;;;;;;;;4.90;56.30;;;;;;4375275;32;19976;-47
2021/11/10 02:02:21;;;;;;;;;;;4.80;56.10;;;;;;4375246;32;20433;-45
2021/11/10 02:04:47;;;;;;;;;;;4.80;55.90;;;;;;4343198;32;19990;-42
2021/11/10 02:07:14;;;;;;;;;;;4.80;55.70;;;;;;4342580;33;19998;-47
2021/11/10 02:09:42;;;;;;;;;;;4.80;55.70;;;;;;4342908;33;19971;-49
2021/11/10 02:12:09;;;;;;;;;;;4.80;55.60;;;;;;4343170;33;20050;-44
2021/11/10 02:14:36;;;;;;;;;;;4.70;55.60;;;;;;4342929;32;20063;-48
2021/11/10 02:17:02;;;;;;;;;;;4.70;55.70;;;;;;4331069;33;19983;-45
2021/11/10 02:19:28;;;;;;;;;;;4.60;55.80;;;;;;4342860;32;20529;-45
2021/11/10 02:21:56;;;;;;;;;;;4.70;55.90;;;;;;4342768;32;19981;-44
2021/11/10 02:24:24;;;;;;;;;;;4.70;56.00;;;;;;4343035;33;19974;-49
2021/11/10 02:26:51;;;;;;;;;;;4.60;56.20;;;;;;4343224;32;19977;-47
2021/11/10 02:29:25;;;;;;;;;;;4.50;56.60;;;;;;4342514;33;19971;-46
2021/11/10 02:31:51;;;;;;;;;;;4.40;56.90;;;;;;4312880;33;20059;-48
2021/11/10 02:34:17;;;;;;;;;;;4.30;57.20;;;;;;4313553;33;19972;-52
2021/11/10 02:36:44;;;;;;;;;;;4.30;57.30;;;;;;4339080;33;20055;-50
2021/11/10 02:39:30;;;;;;;;;;;4.30;57.40;;;;;;4342614;33;19962;-39
2021/11/10 02:41:57;;;;;;;;;;;4.20;57.50;;;;;;4342516;33;19987;-46
2021/11/10 02:44:23;;;;;;;;;;;4.20;57.80;;;;;;4343133;33;19978;-47
2021/11/10 02:46:50;;;;;;;;;;;4.10;58.10;;;;;;4356720;32;19982;-47
2021/11/10 02:49:18;;;;;;;;;;;4.10;58.30;;;;;;4357161;32;19967;-49
2021/11/10 02:52:03;;;;;;;;;;;4.10;58.50;;;;;;4357101;32;20517;-45
2021/11/10 02:54:31;;;;;;;;;;;4.00;58.80;;;;;;4357100;32;20145;-48
2021/11/10 02:56:59;;;;;;;;;;;3.90;58.80;;;;;;4356999;32;19978;-47
2021/11/10 02:59:25;;;;;;;;;;;3.90;58.70;;;;;;4344683;32;20106;-47
2021/11/10 03:01:51;;;;;;;;;;;3.80;58.60;;;;;;4345950;32;20459;-48
2021/11/10 03:04:28;;;;;;;;;;;3.80;58.50;;;;;;4374630;32;19969;-49
2021/11/10 03:06:55;;;;;;;;;;;3.90;58.10;;;;;;4374711;32;19977;-48
2021/11/10 03:09:27;;;;;;;;;;;3.90;58.00;;;;;;4374130;32;20023;-48
2021/11/10 03:11:56;;;;;;;;;;;3.90;57.70;;;;;;4374418;32;20053;-47
2021/11/10 03:14:23;;;;;;;;;;;3.90;57.70;;;;;;4360734;32;20049;-47
2021/11/10 03:16:49;;;;;;;;;;;3.90;58.00;;;;;;4374342;32;19997;-47
2021/11/10 03:19:15;;;;;;;;;;;3.90;58.10;;;;;;4374228;32;19966;-49
2021/11/10 03:21:42;;;;;;;;;;;3.90;58.00;;;;;;4374338;32;19962;-48
2021/11/10 03:24:08;;;;;;;;;;;3.90;58.30;;;;;;4373902;32;20097;-46
2021/11/10 03:26:35;;;;;;;;;;;3.90;57.50;;;;;;4374146;32;19981;-46
2021/11/10 03:29:04;;;;;;;;;;;3.90;57.10;;;;;;4374277;32;19970;-46
2021/11/10 03:31:31;;;;;;;;;;;3.80;57.00;;;;;;4373989;32;19982;-47
2021/11/10 03:33:58;;;;;;;;;;;3.80;57.40;;;;;;4373921;32;19977;-36
2021/11/10 03:36:24;;;;;;;;;;;3.80;57.60;;;;;;4359998;32;19970;-47
2021/11/10 03:38:51;;;;;;;;;;;3.70;58.00;;;;;;4374209;32;19966;-48
2021/11/10 03:41:17;;;;;;;;;;;3.70;57.90;;;;;;4373516;32;19977;-47
2021/11/10 03:43:43;;;;;;;;;;;3.60;58.60;;;;;;4355237;32;19982;-47
2021/11/10 03:46:09;;;;;;;;;;;3.50;59.30;;;;;;4345972;32;19974;-43
2021/11/10 03:48:35;;;;;;;;;;;3.40;59.70;;;;;;4341900;33;19982;-45
2021/11/10 03:51:02;;;;;;;;;;;3.30;60.30;;;;;;4341452;33;19974;-45
2021/11/10 03:53:28;;;;;;;;;;;3.20;61.10;;;;;;4341746;33;19973;-45
2021/11/10 03:55:54;;;;;;;;;;;3.10;62.00;;;;;;4342150;33;20010;-44
2021/11/10 03:58:20;;;;;;;;;;;3.10;62.60;;;;;;4341318;33;20040;-46
2021/11/10 04:00:47;;;;;;;;;;;3.00;63.00;;;;;;4341477;33;19975;-41
2021/11/10 04:03:13;;;;;;;;;;;3.00;63.50;;;;;;4341240;33;19978;-39
2021/11/10 04:05:42;;;;;;;;;;;3.00;63.70;;;;;;4341040;33;19977;-39
2021/11/10 04:08:09;;;;;;;;;;;3.10;63.70;;;;;;4341083;33;20120;-39
2021/11/10 04:10:37;;;;;;;;;;;3.10;63.30;;;;;;4329426;33;19975;-39
2021/11/10 04:13:07;;;;;;;;;;;3.10;62.90;;;;;;4341841;33;20374;-39
2021/11/10 04:15:33;;;;;;;;;;;3.10;61.80;;;;;;4341139;33;20005;-38
2021/11/10 04:18:00;;;;;;;;;;;3.00;61.40;;;;;;4341362;33;20099;-38
2021/11/10 04:20:26;;;;;;;;;;;3.00;61.20;;;;;;4347589;32;19982;-39
2021/11/10 04:22:52;;;;;;;;;;;3.00;60.60;;;;;;4373383;32;20056;-39
2021/11/10 04:25:19;;;;;;;;;;;3.00;60.10;;;;;;4373345;32;19961;-39
2021/11/10 04:27:47;;;;;;;;;;;3.00;60.00;;;;;;4373136;32;20461;-39
2021/11/10 04:30:14;;;;;;;;;;;3.00;59.90;;;;;;4372859;32;19966;-39
2021/11/10 04:32:41;;;;;;;;;;;3.00;60.00;;;;;;4373346;32;20383;-38
2021/11/10 04:35:08;;;;;;;;;;;3.00;59.80;;;;;;4373551;32;20010;-42
2021/11/10 04:37:35;;;;;;;;;;;3.00;59.70;;;;;;4373523;32;19977;-40
2021/11/10 04:40:01;;;;;;;;;;;2.90;59.20;;;;;;4373189;32;19968;-41
2021/11/10 04:42:28;;;;;;;;;;;2.90;59.50;;;;;;4360000;32;19982;-40
2021/11/10 04:45:06;;;;;;;;;;;2.90;59.40;;;;;;4372969;32;20396;-39
2021/11/10 04:47:32;;;;;;;;;;;2.90;59.60;;;;;;4373419;32;19965;-38
2021/11/10 04:49:58;;;;;;;;;;;2.80;59.50;;;;;;4373537;32;20055;-40
2021/11/10 04:52:25;;;;;;;;;;;2.80;59.30;;;;;;4372672;32;19981;-40
2021/11/10 04:54:52;;;;;;;;;;;2.70;58.70;;;;;;4372947;32;20400;-40
2021/11/10 04:57:18;;;;;;;;;;;2.70;58.30;;;;;;4376137;32;20058;-40
2021/11/10 04:59:45;;;;;;;;;;;2.60;58.30;;;;;;4375837;32;19981;-39
2021/11/10 05:04:39;;;;;;;;;;;2.50;58.40;;;;;;4376215;32;19969;-38
2021/11/10 05:07:05;;;;;;;;;;;2.50;57.90;;;;;;4376021;32;20009;-40
2021/11/10 05:09:31;;;;;;;;;;;2.50;57.70;;;;;;4375717;32;19989;-39
2021/11/10 05:11:58;;;;;;;;;;;2.50;57.70;;;;;;4376058;32;19977;-38
2021/11/10 05:14:24;;;;;;;;;;;2.50;57.40;;;;;;4375681;32;20012;-38
2021/11/10 05:16:50;;;;;;;;;;;2.40;57.00;;;;;;4375644;32;19985;-39
2021/11/10 05:19:17;;;;;;;;;;;2.40;57.50;;;;;;4376400;32;20116;-40
2021/11/10 05:21:43;;;;;;;;;;;2.40;57.00;;;;;;4376081;32;19990;-40
2021/11/10 05:24:09;;;;;;;;;;;2.30;56.70;;;;;;4375723;32;19974;-40
2021/11/10 05:26:37;;;;;;;;;;;2.20;56.90;;;;;;4376010;32;19977;-39
2021/11/10 05:29:05;;;;;;;;;;;2.30;57.20;;;;;;4375630;32;20054;-35
2021/11/10 05:31:31;;;;;;;;;;;2.30;57.00;;;;;;4362062;32;20394;-39
2021/11/10 05:33:57;;;;;;;;;;;2.30;56.40;;;;;;4375960;32;19977;-39
2021/11/10 05:36:23;;;;;;;;;;;2.30;56.60;;;;;;4361861;32;20416;-39
2021/11/10 05:38:50;;;;;;;;;;;2.30;56.00;;;;;;4375737;32;20086;-39
2021/11/10 05:41:16;;;;;;;;;;;2.30;55.60;;;;;;4375855;32;20009;-39
2021/11/10 05:43:42;;;;;;;;;;;2.20;55.20;;;;;;4374121;32;19969;-39
2021/11/10 05:46:09;;;;;;;;;;;2.10;54.70;;;;;;4375698;32;19970;-39
2021/11/10 05:48:35;;;;;;;;;;;2.10;54.80;;;;;;4375258;32;19966;-36
2021/11/10 05:51:02;;;;;;;;;;;2.10;54.70;;;;;;4373690;32;19963;-40
2021/11/10 05:53:29;;;;;;;;;;;2.00;54.00;;;;;;4375063;32;20008;-39
2021/11/10 05:55:56;;;;;;;;;;;2.00;53.90;;;;;;4375298;32;20002;-40
2021/11/10 05:58:28;;;;;;;;;;;2.00;53.60;;;;;;4373459;32;19973;-40
2021/11/10 06:00:57;;;;;;;;;;;2.00;53.30;;;;;;4375070;32;19969;-40
2021/11/10 06:03:23;;;;;;;;;;;2.00;53.50;;;;;;4375028;32;19961;-39
2021/11/10 06:05:53;;;;;;;;;;;2.00;53.10;;;;;;4375164;32;20065;-39
2021/11/10 06:08:19;;;;;;;;;;;2.10;53.30;;;;;;4373905;32;19977;-38
2021/11/10 06:10:47;;;;;;;;;;;2.10;52.80;;;;;;4373224;32;19977;-39
2021/11/10 06:13:13;;;;;;;;;;;2.10;52.90;;;;;;4375174;32;19973;-40
2021/11/10 06:15:39;;;;;;;;;;;2.00;53.20;;;;;;4373651;32;19962;-38
2021/11/10 06:18:07;;;;;;;;;;;2.10;53.00;;;;;;4375348;32;19982;-39
2021/11/10 06:20:35;;;;;;;;;;;2.10;52.80;;;;;;4375426;32;19959;-39
2021/11/10 06:23:04;;;;;;;;;;;2.10;53.00;;;;;;4374641;32;20424;-39
2021/11/10 06:25:31;;;;;;;;;;;2.20;52.60;;;;;;4384634;32;20425;-39
2021/11/10 06:27:57;;;;;;;;;;;2.20;52.00;;;;;;4389821;32;20032;-40
2021/11/10 06:30:24;;;;;;;;;;;2.10;51.70;;;;;;4375775;32;19981;-38
2021/11/10 06:32:50;;;;;;;;;;;2.20;51.90;;;;;;4390339;32;20016;-40
2021/11/10 06:35:17;;;;;;;;;;;2.20;51.80;;;;;;4389733;32;20058;-40
2021/11/10 06:37:43;;;;;;;;;;;2.20;51.40;;;;;;4389736;32;19972;-39
2021/11/10 06:40:10;;;;;;;;;;;2.20;51.90;;;;;;4389725;32;19961;-40
2021/11/10 06:42:37;;;;;;;;;;;2.20;51.90;;;;;;4371845;32;20016;-40
2021/11/10 06:45:04;;;;;;;;;;;2.30;51.60;;;;;;4369110;32;19974;-39
2021/11/10 06:47:30;;;;;;;;;;;2.30;51.00;;;;;;4357247;32;19994;-39
2021/11/10 06:49:57;;;;;;;;;;;2.30;49.50;;;;;;4357240;32;20054;-39
2021/11/10 06:52:23;;;;;;;;;;;2.20;48.90;;;;;;4357143;32;19973;-38
2021/11/10 06:54:53;;;;;;;;;;;2.20;49.40;;;;;;4357002;32;20047;-38
2021/11/10 06:57:19;;;;;;;;;;;2.30;49.20;;;;;;4357015;32;19973;-40
2021/11/10 06:59:45;;;;;;;;;;;2.30;46.80;;;;;;4357131;32;19959;-39
2021/11/10 07:02:12;;;;;;;;;;;2.20;47.20;;;;;;4357270;32;20466;-39
2021/11/10 07:04:38;;;;;;;;;;;2.10;47.40;;;;;;4357157;32;20119;-38
2021/11/10 07:07:04;;;;;;;;;;;2.10;47.40;;;;;;4356635;32;19993;-39
2021/11/10 07:09:32;;;;;;;;;;;2.10;47.80;;;;;;4356797;32;20002;-39
2021/11/10 07:11:58;;;;;;;;;;;2.00;47.60;;;;;;4356932;32;20047;-39
2021/11/10 07:14:26;;;;;;;;;;;2.00;47.40;;;;;;4370981;32;19977;-40
2021/11/10 07:16:53;;;;;;;;;;;2.10;47.60;;;;;;4373845;32;19977;-39
2021/11/10 07:19:19;;;;;;;;;;;2.20;47.50;;;;;;4374066;32;20004;-38
2021/11/10 07:21:46;;;;;;;;;;;2.20;47.00;;;;;;4373950;32;19970;-39
2021/11/10 07:24:12;;;;;;;;;;;2.20;46.60;;;;;;4360008;32;19981;-39
2021/11/10 07:26:38;;;;;;;;;;;2.20;45.80;;;;;;4374315;32;19970;-39
2021/11/10 07:29:04;;;;;;;;;;;2.20;45.80;;;;;;4374121;32;19958;-39
2021/11/10 07:31:31;;;;;;;;;;;2.20;45.90;;;;;;4373931;32;20078;-40
2021/11/10 07:33:59;;;;;;;;;;;2.10;45.90;;;;;;4373751;32;19977;-39
2021/11/10 07:36:26;;;;;;;;;;;2.10;45.90;;;;;;4373842;32;19966;-40
2021/11/10 07:38:55;;;;;;;;;;;2.10;46.10;;;;;;4360100;32;19969;-39
2021/11/10 07:41:23;;;;;;;;;;;2.20;45.60;;;;;;4374041;32;19974;-38
2021/11/10 07:43:52;;;;;;;;;;;2.20;45.30;;;;;;4374009;32;19996;-39
2021/11/10 07:46:20;;;;;;;;;;;2.20;45.20;;;;;;4373896;32;19973;-38
2021/11/10 07:48:49;;;;;;;;;;;2.30;45.00;;;;;;4373643;32;19977;-38
2021/11/10 07:51:16;;;;;;;;;;;2.30;44.70;;;;;;4373379;32;19962;-38
2021/11/10 07:53:43;;;;;;;;;;;2.40;44.80;;;;;;4373872;32;19978;-37
2021/11/10 07:56:09;;;;;;;;;;;2.40;44.80;;;;;;4374029;32;19962;-38
2021/11/10 07:58:36;;;;;;;;;;;2.40;44.30;;;;;;4373470;32;20034;-38
2021/11/10 08:01:02;;;;;;;;;;;2.50;44.20;;;;;;4373556;32;19990;-38
2021/11/10 08:03:28;;;;;;;;;;;2.50;44.20;;;;;;4373644;32;19966;-38
2021/11/10 08:05:56;;;;;;;;;;;2.50;43.50;;;;;;4373646;32;19962;-39
2021/11/10 08:08:23;;;;;;;;;;;2.40;43.50;;;;;;4373110;32;20013;-37
2021/11/10 08:10:51;;;;;;;;;;;2.40;43.60;;;;;;4373202;32;19964;-38
2021/11/10 08:13:17;;;;;;;;;;;2.40;44.10;;;;;;4373344;32;19977;-38
2021/11/10 08:15:43;;;;;;;;;;;2.40;43.80;;;;;;4373384;32;20063;-37
2021/11/10 08:18:09;;;;;;;;;;;2.50;43.60;;;;;;4359927;32;20416;-38
2021/11/10 08:20:38;;;;;;;;;;;2.60;43.00;;;;;;4359696;32;19969;-37
2021/11/10 08:23:04;;;;;;;;;;;2.70;42.70;;;;;;4373013;32;20635;-38
2021/11/10 08:25:30;;;;;;;;;;;2.80;42.40;;;;;;4373326;32;19998;-36
2021/11/10 08:27:57;;;;;;;;;;;2.80;42.00;;;;;;4373570;32;19974;-38
2021/11/10 08:30:23;;;;;;;;;;;2.90;42.00;;;;;;4372580;32;20014;-38
2021/11/10 08:32:50;;;;;;;;;;;2.90;41.60;;;;;;4372836;32;20033;-38
2021/11/10 08:35:16;;;;;;;;;;;2.90;41.30;;;;;;4373247;32;19966;-38
2021/11/10 08:37:44;;;;;;;;;;;2.90;41.10;;;;;;4372977;32;20003;-39
2021/11/10 08:40:10;;;;;;;;;;;2.80;41.80;;;;;;4373230;32;19962;-38
2021/11/10 08:42:37;;;;;;;;;;;2.80;41.10;;;;;;4373290;32;19962;-39
2021/11/10 08:45:11;;;;;;;;;;;2.80;41.10;;;;;;4359971;32;19992;-38
2021/11/10 08:47:39;;;;;;;;;;;2.90;41.30;;;;;;4371546;32;19966;-36
2021/11/10 08:50:07;;;;;;;;;;;2.90;41.10;;;;;;4371271;32;20477;-38
2021/11/10 08:52:35;;;;;;;;;;;3.00;41.10;;;;;;4373579;32;20389;-38
2021/11/10 08:55:02;;;;;;;;;;;3.00;40.80;;;;;;4373108;32;19960;-39
2021/11/10 08:57:28;;;;;;;;;;;3.00;40.60;;;;;;4372773;32;20058;-38
2021/11/10 08:59:55;;;;;;;;;;;3.00;40.60;;;;;;4373189;32;19970;-39
2021/11/10 09:02:21;;;;;;;;;;;3.20;40.80;;;;;;4373104;32;19978;-38
2021/11/10 09:04:47;;;;;;;;;;;3.30;40.40;;;;;;4373382;32;20399;-36
2021/11/10 09:07:13;;;;;;;;;;;3.40;40.30;;;;;;4373183;32;20423;-38
2021/11/10 09:09:39;;;;;;;;;;;3.40;40.00;;;;;;4372871;32;20033;-37
2021/11/10 09:12:08;;;;;;;;;;;3.40;39.70;;;;;;4372792;32;19974;-38
2021/11/10 09:14:34;;;;;;;;;;;3.40;40.00;;;;;;4373241;32;20387;-37
2021/11/10 09:17:01;;;;;;;;;;;3.50;39.90;;;;;;4372764;32;19962;-36
2021/11/10 09:19:27;;;;;;;;;;;3.60;39.90;;;;;;4373004;32;20065;-37
2021/11/10 09:21:53;;;;;;;;;;;3.60;39.70;;;;;;4371672;32;20127;-39
2021/11/10 09:24:20;;;;;;;;;;;3.60;39.20;;;;;;4375192;32;19953;-36
2021/11/10 09:26:47;;;;;;;;;;;3.50;39.20;;;;;;4373967;32;20503;-39
2021/11/10 09:29:16;;;;;;;;;;;3.60;39.50;;;;;;4387835;32;20422;-37
2021/11/10 09:31:42;;;;;;;;;;;3.60;39.40;;;;;;4387783;32;19980;-39
2021/11/10 09:34:11;;;;;;;;;;;3.70;39.90;;;;;;4387877;32;19984;-38
2021/11/10 09:36:46;;;;;;;;;;;3.70;40.00;;;;;;4374156;32;20073;-38
2021/11/10 09:39:17;;;;;;;;;;;3.70;40.20;;;;;;4387857;32;19977;-37
2021/11/10 09:41:46;;;;;;;;;;;3.60;40.00;;;;;;4388324;32;19993;-39
2021/11/10 09:44:13;;;;;;;;;;;3.60;40.00;;;;;;4390718;32;19965;-39
2021/11/10 09:46:39;;;;;;;;;;;3.50;40.20;;;;;;4377514;32;20004;-38
2021/11/10 09:49:06;;;;;;;;;;;3.50;40.10;;;;;;4361422;32;19969;-36
2021/11/10 09:51:33;;;;;;;;;;;3.50;40.20;;;;;;4361716;32;20487;-38
2021/11/10 09:54:01;;;;;;;;;;;3.60;39.90;;;;;;4375037;32;20069;-38
2021/11/10 09:56:27;;;;;;;;;;;3.60;39.90;;;;;;4361318;32;20047;-36
2021/11/10 09:58:53;;;;;;;;;;;3.60;39.70;;;;;;4375471;32;20069;-37
2021/11/10 10:01:20;;;;;;;;;;;3.70;39.90;;;;;;4375261;32;20406;-46
2021/11/10 10:03:47;;;;;;;;;;;3.70;40.10;;;;;;4375207;32;19965;-38
2021/11/10 10:06:14;;;;;;;;;;;3.80;39.60;;;;;;4374999;32;19977;-36
2021/11/10 10:08:42;;;;;;;;;;;3.80;39.70;;;;;;4375316;32;20477;-38
2021/11/10 10:11:08;;;;;;;;;;;3.70;39.50;;;;;;4361240;32;20418;-39
2021/11/10 10:13:34;;;;;;;;;;;3.50;39.40;;;;;;4374929;32;20083;-37
2021/11/10 10:16:00;;;;;;;;;;;3.50;39.80;;;;;;4361071;32;20402;-39
2021/11/10 10:18:29;;;;;;;;;;;3.40;39.90;;;;;;4374953;32;20009;-37
2021/11/10 10:20:58;;;;;;;;;;;3.30;40.10;;;;;;4375427;32;19959;-38
2021/11/10 10:23:27;;;;;;;;;;;3.40;40.30;;;;;;4375152;32;20035;-39
2021/11/10 10:26:17;;;;;;;;;;;3.40;40.10;;;;;;4375344;32;19985;-38
2021/11/10 10:28:52;;;;;;;;;;;3.30;39.50;;;;;;4375130;32;19971;-38
2021/11/10 10:31:24;;;;;;;;;;;3.30;39.50;;;;;;4373516;32;19990;-38
2021/11/10 10:33:57;;;;;;;;;;;3.20;39.70;;;;;;4374034;32;20058;-38
2021/11/10 10:36:25;;;;;;;;;;;3.20;40.00;;;;;;4375077;32;19962;-36
2021/11/10 10:38:56;;;;;;;;;;;3.30;40.30;;;;;;4375064;32;20411;-37
2021/11/10 10:41:33;;;;;;;;;;;3.30;40.30;;;;;;4374920;32;19973;-37
2021/11/10 10:44:14;;;;;;;;;;;3.40;40.20;;;;;;4375294;32;20421;-38
2021/11/10 10:46:46;;;;;;;;;;;3.40;40.30;;;;;;4374324;32;19973;-37
2021/11/10 10:49:17;;;;;;;;;;;3.40;40.30;;;;;;4373325;32;20045;-39
2021/11/10 10:51:45;;;;;;;;;;;3.40;40.20;;;;;;4374738;32;20365;-38
2021/11/10 10:54:11;;;;;;;;;;;3.30;40.20;;;;;;4372525;32;19965;-36
2021/11/10 10:56:38;;;;;;;;;;;3.30;40.20;;;;;;4374357;32;20053;-40
2021/11/10 10:59:12;;;;;;;;;;;3.30;40.30;;;;;;4374980;32;20363;-37
2021/11/10 11:01:47;;;;;;;;;;;3.30;40.10;;;;;;4373042;32;20425;-38
2021/11/10 11:04:18;;;;;;;;;;;3.30;40.10;;;;;;4360375;32;19997;-37
2021/11/10 11:06:49;;;;;;;;;;;3.20;40.10;;;;;;4374514;32;19984;-38
2021/11/10 11:09:17;;;;;;;;;;;3.20;40.60;;;;;;4374177;32;19976;-38
2021/11/10 11:12:11;;;;;;;;;;;3.20;40.60;;;;;;4372533;32;20082;-39
2021/11/10 11:14:44;;;;;;;;;;;3.30;40.90;;;;;;4372469;32;19981;-38
2021/11/10 11:17:21;;;;;;;;;;;3.30;41.80;;;;;;4374242;32;19958;-37
2021/11/10 11:20:11;;;;;;;;;;;3.30;42.00;;;;;;4373994;32;20426;-36
2021/11/10 11:22:51;;;;;;;;;;;3.30;41.80;;;;;;4374361;32;20415;-38
2021/11/10 11:25:25;;;;;;;;;;;3.20;41.80;;;;;;4382347;32;19973;-36
2021/11/10 11:28:03;;;;;;;;;;;3.20;41.70;;;;;;4375843;32;19989;-40
2021/11/10 11:30:40;;;;;;;;;;;3.20;42.10;;;;;;4375085;32;19968;-38
2021/11/10 11:33:15;;;;;;;;;;;3.10;41.90;;;;;;4388728;32;19977;-37
2021/11/10 11:35:43;;;;;;;;;;;3.00;42.20;;;;;;4389201;32;19982;-37
2021/11/10 11:38:15;;;;;;;;;;;3.10;42.60;;;;;;4389184;32;20050;-37
2021/11/10 11:40:44;;;;;;;;;;;3.00;42.50;;;;;;4388857;32;19969;-37
2021/11/10 11:43:11;;;;;;;;;;;3.00;42.50;;;;;;4375023;32;19969;-37
2021/11/10 11:45:40;;;;;;;;;;;3.00;42.60;;;;;;4382459;32;20066;-38
2021/11/10 11:48:07;;;;;;;;;;;2.90;42.50;;;;;;4373637;32;20381;-38
2021/11/10 11:50:33;;;;;;;;;;;3.00;42.50;;;;;;4373903;32;20458;-38
2021/11/10 11:52:59;;;;;;;;;;;3.00;42.40;;;;;;4373855;32;20410;-37
2021/11/10 11:55:39;;;;;;;;;;;3.00;42.50;;;;;;4373823;32;20004;-36
2021/11/10 11:58:09;;;;;;;;;;;2.90;42.50;;;;;;4360660;32;20406;-37
2021/11/10 12:00:43;;;;;;;;;;;2.90;42.60;;;;;;4373982;32;20029;-37
2021/11/10 12:03:20;;;;;;;;;;;2.80;42.50;;;;;;4373465;32;20358;-37
2021/11/10 12:05:47;;;;;;;;;;;2.80;42.60;;;;;;4372889;32;20465;-36
2021/11/10 12:08:13;;;;;;;;;;;2.70;42.00;;;;;;4373850;32;19974;-37
2021/11/10 12:10:40;;;;;;;;;;;2.70;42.20;;;;;;4373264;32;20460;-37
2021/11/10 12:13:19;;;;;;;;;;;2.60;42.10;;;;;;4373670;32;19996;-38
2021/11/10 12:15:58;;;;;;;;;;;2.60;42.20;;;;;;4359807;32;20396;-38
2021/11/10 12:18:25;;;;;;;;;;;2.50;42.30;;;;;;4373823;32;19970;-38
2021/11/10 12:21:01;;;;;;;;;;;2.60;42.50;;;;;;4373293;32;19974;-37
2021/11/10 12:23:53;;;;;;;;;;;2.50;42.20;;;;;;4373251;32;19989;-36
2021/11/10 12:26:19;;;;;;;;;;;2.50;42.20;;;;;;4373460;32;19978;-39
2021/11/10 12:29:12;;;;;;;;;;;2.40;42.00;;;;;;4373313;32;20421;-38
2021/11/10 12:31:39;;;;;;;;;;;2.40;42.20;;;;;;4371178;32;19982;-38
2021/11/10 12:34:15;;;;;;;;;;;2.40;42.20;;;;;;4373140;32;19986;-38
2021/11/10 12:36:59;;;;;;;;;;;2.30;42.00;;;;;;4372949;32;19966;-38
2021/11/10 12:39:29;;;;;;;;;;;2.30;42.10;;;;;;4373494;32;20402;-37
2021/11/10 12:42:02;;;;;;;;;;;2.20;42.10;;;;;;4373736;32;19969;-38
2021/11/10 12:44:33;;;;;;;;;;;2.20;42.20;;;;;;4373522;32;19984;-37
2021/11/10 12:47:00;;;;;;;;;;;2.20;42.10;;;;;;4359395;32;19981;-35
2021/11/10 12:49:27;;;;;;;;;;;2.10;41.80;;;;;;4373476;32;19970;-38
2021/11/10 12:52:25;;;;;;;;;;;2.10;42.10;;;;;;4372862;32;19998;-39
2021/11/10 12:55:12;;;;;;;;;;;2.10;42.50;;;;;;4310832;33;19978;-39
2021/11/10 12:57:38;;;;;;;;;;;2.00;42.70;;;;;;4310915;33;19987;-39
2021/11/10 13:00:05;;;;;;;;;;;2.10;42.90;;;;;;4311842;33;19971;-38
2021/11/10 13:02:32;;;;;;;;;;;2.20;43.00;;;;;;4311597;33;20006;-37
2021/11/10 13:04:59;;;;;;;;;;;2.20;42.90;;;;;;4311875;33;19991;-40
2021/11/10 13:07:32;;;;;;;;;;;2.10;42.90;;;;;;4299830;33;20385;-39
2021/11/10 13:10:09;;;;;;;;;;;2.10;43.10;;;;;;4311614;33;20050;-39
2021/11/10 13:12:36;;;;;;;;;;;2.10;43.20;;;;;;4299575;33;20435;-38
2021/11/10 13:15:04;;;;;;;;;;;2.20;44.10;;;;;;4310893;33;20451;-39
2021/11/10 13:17:32;;;;;;;;;;;2.10;43.20;;;;;;4313626;33;19999;-36
2021/11/10 13:20:00;;;;;;;;;;;2.10;43.10;;;;;;4314386;33;20021;-38
2021/11/10 13:22:29;;;;;;;;;;;2.10;42.30;;;;;;4314455;33;19964;-38
2021/11/10 13:25:02;;;;;;;;;;;2.00;41.40;;;;;;4313402;33;20049;-38
2021/11/10 13:27:29;;;;;;;;;;;2.00;41.10;;;;;;4314643;33;19984;-39
2021/11/10 13:29:56;;;;;;;;;;;1.90;40.40;;;;;;4331039;32;20039;-39
2021/11/10 13:32:22;;;;;;;;;;;1.80;40.30;;;;;;4375444;32;20503;-40
2021/11/10 13:34:56;;;;;;;;;;;1.80;40.40;;;;;;4375682;32;20394;-38
2021/11/10 13:37:23;;;;;;;;;;;1.70;40.40;;;;;;4362442;32;20418;-38
2021/11/10 13:39:58;;;;;;;;;;;1.70;40.50;;;;;;4375255;32;19985;-39
2021/11/10 13:42:26;;;;;;;;;;;1.70;40.70;;;;;;4375613;32;19962;-38
2021/11/10 13:45:07;;;;;;;;;;;1.80;40.90;;;;;;4377669;32;20022;-39
2021/11/10 13:47:34;;;;;;;;;;;1.80;40.80;;;;;;4390757;32;20407;-38
2021/11/10 13:50:00;;;;;;;;;;;1.90;40.70;;;;;;4390471;32;20055;-38
2021/11/10 13:52:26;;;;;;;;;;;1.80;40.50;;;;;;4390727;32;20034;-36
2021/11/10 13:54:56;;;;;;;;;;;1.80;40.70;;;;;;4390599;32;20005;-39
2021/11/10 13:57:23;;;;;;;;;;;1.70;40.50;;;;;;4390599;32;19969;-38
2021/11/10 13:59:54;;;;;;;;;;;1.70;40.80;;;;;;4376421;32;19972;-39
2021/11/10 14:02:22;;;;;;;;;;;1.70;40.90;;;;;;4390128;32;19974;-38
2021/11/10 14:04:54;;;;;;;;;;;1.70;40.90;;;;;;4390508;32;20394;-38
2021/11/10 14:07:30;;;;;;;;;;;1.70;40.80;;;;;;4390098;32;20441;-38
2021/11/10 14:10:01;;;;;;;;;;;1.70;40.90;;;;;;4389928;32;20457;-39
2021/11/10 14:12:41;;;;;;;;;;;1.80;40.90;;;;;;4390378;32;20042;-39
2021/11/10 14:15:18;;;;;;;;;;;1.80;41.00;;;;;;4389968;32;19985;-38
2021/11/10 14:17:57;;;;;;;;;;;1.80;40.90;;;;;;4390117;32;20017;-37
2021/11/10 14:20:37;;;;;;;;;;;1.80;40.90;;;;;;4376277;32;20127;-38
2021/11/10 14:23:16;;;;;;;;;;;1.90;41.00;;;;;;4390474;32;19977;-38
2021/11/10 14:25:45;;;;;;;;;;;2.00;40.80;;;;;;4390195;32;19969;-39
2021/11/10 14:28:12;;;;;;;;;;;1.90;40.30;;;;;;4388928;32;20497;-39
2021/11/10 14:30:47;;;;;;;;;;;1.90;40.40;;;;;;4389678;32;19999;-38
2021/11/10 14:33:16;;;;;;;;;;;1.90;40.60;;;;;;4389567;32;19996;-38
2021/11/10 14:35:50;;;;;;;;;;;1.80;40.80;;;;;;4390084;32;19957;-38
2021/11/10 14:38:20;;;;;;;;;;;1.80;40.80;;;;;;4389547;32;19973;-38
2021/11/10 14:40:50;;;;;;;;;;;1.80;40.60;;;;;;4389765;32;19961;-38
2021/11/10 14:43:24;;;;;;;;;;;1.80;40.70;;;;;;4375734;32;20045;-38